Time;durP1;ratioP1;P1;durP2;ratioP2;P2;SDS_P1;SDS_P2;PMS_P1;PMS_P2;Temp;Humidity;BMP_temperature;BMP_pressure;BME280_temperature;BME280_humidity;BME280_pressure;Samples;Min_cycle;Max_cycle;Signal;HPM_P1;HPM_P2
2022/02/19 00:01:32;;;;;;;0.47;0.47;;;;;;;1.75;97.22;96171.81;5065786;28;20031;-71
2022/02/19 00:03:57;;;;;;;0.40;0.40;;;;;;;1.77;97.07;96170.03;5065614;28;20025;-71
2022/02/19 00:06:23;;;;;;;0.40;0.40;;;;;;;1.79;97.17;96178.44;5065740;28;20341;-71
2022/02/19 00:08:48;;;;;;;0.40;0.40;;;;;;;1.80;97.28;96176.72;5065361;28;20024;-71
2022/02/19 00:11:13;;;;;;;0.40;0.40;;;;;;;1.81;97.27;96173.25;5065673;28;20123;-72
2022/02/19 00:13:39;;;;;;;0.40;0.40;;;;;;;1.95;97.01;96181.19;5065351;28;20033;-73
2022/02/19 00:16:07;;;;;;;0.40;0.40;;;;;;;2.02;97.06;96173.25;5065634;28;20017;-72
2022/02/19 00:18:33;;;;;;;0.32;0.32;;;;;;;2.03;96.82;96187.72;5065527;28;20223;-72
2022/02/19 00:20:58;;;;;;;0.40;0.40;;;;;;;1.98;96.78;96180.25;5065230;28;20021;-71
2022/02/19 00:23:28;;;;;;;0.50;0.50;;;;;;;1.93;96.83;96193.22;5065279;28;20023;-71
2022/02/19 00:25:53;;;;;;;0.40;0.40;;;;;;;1.90;96.83;96193.34;5065107;28;20068;-71
2022/02/19 00:28:19;;;;;;;0.50;0.50;;;;;;;1.92;96.89;96196.66;5065161;28;20028;-72
2022/02/19 00:30:44;;;;;;;0.30;0.30;;;;;;;1.94;97.09;96191.50;5065179;28;20180;-71
2022/02/19 00:33:09;;;;;;;0.40;0.40;;;;;;;2.00;96.78;96198.09;5047097;28;20032;-71
2022/02/19 00:35:34;;;;;;;0.40;0.40;;;;;;;2.05;96.73;96201.28;5046961;28;20024;-71
2022/02/19 00:38:00;;;;;;;0.40;0.40;;;;;;;1.98;97.04;96193.84;5064912;28;20035;-70
2022/02/19 00:40:25;;;;;;;0.40;0.40;;;;;;;2.01;97.01;96192.91;5064682;28;20044;-70
2022/02/19 00:42:51;;;;;;;0.40;0.40;;;;;;;2.07;96.66;96199.50;5064747;28;20425;-71
2022/02/19 00:45:16;;;;;;;0.50;0.50;;;;;;;2.12;96.85;96201.84;5063994;28;20017;-72
2022/02/19 00:47:41;;;;;;;0.40;0.40;;;;;;;2.14;96.89;96200.88;5064795;28;20020;-73
2022/02/19 00:50:08;;;;;;;0.40;0.40;;;;;;;2.10;96.70;96201.91;5046484;28;20032;-73
2022/02/19 00:52:34;;;;;;;0.40;0.40;;;;;;;2.07;96.95;96202.06;5064513;28;20029;-72
2022/02/19 00:54:59;;;;;;;0.40;0.40;;;;;;;2.09;97.00;96213.06;5064248;28;20025;-72
2022/02/19 00:57:25;;;;;;;0.40;0.40;;;;;;;2.14;96.87;96213.66;5064524;28;20024;-73
2022/02/19 00:59:50;;;;;;;0.40;0.40;;;;;;;2.16;97.11;96213.59;5064275;28;20021;-73
2022/02/19 01:02:15;;;;;;;0.40;0.40;;;;;;;2.20;97.11;96217.72;5064356;28;20025;-74
2022/02/19 01:04:41;;;;;;;0.30;0.30;;;;;;;2.22;96.98;96216.75;5064504;28;20082;-73
2022/02/19 01:07:06;;;;;;;0.40;0.40;;;;;;;2.26;97.16;96219.16;5064270;28;20107;-73
2022/02/19 01:09:31;;;;;;;0.40;0.40;;;;;;;2.25;97.18;96217.53;5064039;28;20024;-73
2022/02/19 01:11:57;;;;;;;0.40;0.40;;;;;;;2.35;96.99;96223.91;5064162;28;20029;-72
2022/02/19 01:14:22;;;;;;;0.50;0.50;;;;;;;2.38;97.18;96238.31;5064050;28;20021;-74
2022/02/19 01:16:48;;;;;;;0.40;0.40;;;;;;;2.31;97.27;96232.63;5046388;28;20055;-74
2022/02/19 01:19:13;;;;;;;0.40;0.40;;;;;;;2.37;97.04;96240.03;5064184;28;20037;-74
2022/02/19 01:21:38;;;;;;;0.75;0.75;;;;;;;2.43;96.93;96244.06;5063931;28;20025;-73
2022/02/19 01:24:04;;;;;;;0.40;0.40;;;;;;;2.42;96.90;96240.66;5063630;28;20477;-73
2022/02/19 01:26:31;;;;;;;1.10;1.10;;;;;;;2.48;97.02;96239.56;5063845;28;20041;-73
2022/02/19 01:28:57;;;;;;;0.40;0.40;;;;;;;2.48;97.23;96250.66;5063796;28;20031;-73
2022/02/19 01:31:24;;;;;;;0.40;0.40;;;;;;;2.52;96.74;96255.63;5063779;28;20037;-74
2022/02/19 01:33:50;;;;;;;0.40;0.40;;;;;;;2.39;96.36;96251.03;5063764;28;20277;-74
2022/02/19 01:36:15;;;;;;;0.40;0.40;;;;;;;2.25;96.09;96256.75;5045802;28;20125;-75
2022/02/19 01:38:41;;;;;;;0.50;0.50;;;;;;;2.15;95.71;96266.53;5063864;28;20021;-73
2022/02/19 01:41:06;;;;;;;0.30;0.30;;;;;;;1.97;95.76;96268.09;5063714;28;20020;-74
2022/02/19 01:43:32;;;;;;;0.40;0.40;;;;;;;1.93;95.89;96269.13;5063616;28;20116;-73
2022/02/19 01:45:57;;;;;;;0.40;0.40;;;;;;;1.87;95.93;96269.38;5063773;28;20031;-74
2022/02/19 01:48:23;;;;;;;0.40;0.40;;;;;;;1.80;95.94;96268.78;5063393;28;20359;-74
2022/02/19 01:50:48;;;;;;;0.40;0.40;;;;;;;1.69;96.02;96272.59;5063559;28;20095;-73
2022/02/19 01:53:18;;;;;;;0.40;0.40;;;;;;;1.61;96.02;96264.41;5063297;28;20508;-73
2022/02/19 01:55:45;;;;;;;1.63;1.58;;;;;;;1.62;96.06;96273.75;5063120;28;20025;-73
2022/02/19 01:58:12;;;;;;;0.40;0.40;;;;;;;1.58;96.07;96278.13;5063355;28;20056;-73
2022/02/19 02:00:37;;;;;;;0.40;0.40;;;;;;;1.55;96.17;96275.69;5063344;28;20084;-73
2022/02/19 02:03:02;;;;;;;0.40;0.40;;;;;;;1.47;96.16;96278.53;5063264;28;20032;-73
2022/02/19 02:05:28;;;;;;;0.40;0.40;;;;;;;1.47;96.21;96288.78;5063325;28;20115;-73
2022/02/19 02:07:54;;;;;;;0.40;0.40;;;;;;;1.38;96.35;96288.28;5063209;28;20032;-73
2022/02/19 02:10:20;;;;;;;0.40;0.40;;;;;;;1.37;96.38;96292.59;5045054;28;20025;-73
2022/02/19 02:12:45;;;;;;;0.40;0.40;;;;;;;1.44;96.41;96308.50;5063130;28;20472;-73
2022/02/19 02:15:27;;;;;;;0.40;0.40;;;;;;;1.38;96.32;96307.00;5063548;28;20036;-72
2022/02/19 02:17:53;;;;;;;0.50;0.50;;;;;;;1.39;96.29;96306.13;5063268;28;20028;-72
2022/02/19 02:20:19;;;;;;;0.40;0.40;;;;;;;1.38;96.47;96309.56;5045011;28;20037;-73
2022/02/19 02:22:45;;;;;;;0.40;0.40;;;;;;;1.39;96.53;96315.53;5062444;28;20029;-72
2022/02/19 02:25:11;;;;;;;0.40;0.40;;;;;;;1.36;96.43;96324.13;5062806;28;20056;-73
2022/02/19 02:27:37;;;;;;;0.40;0.40;;;;;;;1.32;96.39;96322.59;5045237;28;20040;-74
2022/02/19 02:30:06;;;;;;;0.40;0.40;;;;;;;1.29;96.32;96320.13;5063086;28;20021;-73
2022/02/19 02:32:31;;;;;;;0.40;0.40;;;;;;;1.20;96.16;96327.25;5062638;28;20033;-74
2022/02/19 02:34:57;;;;;;;0.40;0.40;;;;;;;1.15;95.92;96339.34;5063278;28;20029;-74
2022/02/19 02:37:24;;;;;;;0.40;0.40;;;;;;;1.05;95.94;96343.97;5063090;28;20028;-76
2022/02/19 02:39:51;;;;;;;0.40;0.40;;;;;;;0.98;95.96;96348.47;5062692;28;20110;-74
2022/02/19 02:42:18;;;;;;;0.40;0.40;;;;;;;0.97;96.06;96361.28;5062899;28;20055;-74
2022/02/19 02:44:45;;;;;;;0.47;0.47;;;;;;;0.92;95.74;96361.44;5063144;28;20100;-73
2022/02/19 02:47:10;;;;;;;0.50;0.50;;;;;;;0.81;95.73;96378.84;5062643;28;20029;-73
2022/02/19 02:49:36;;;;;;;0.45;0.45;;;;;;;0.72;95.85;96380.84;5063137;28;20067;-73
2022/02/19 02:52:03;;;;;;;0.40;0.40;;;;;;;0.67;95.57;96390.34;5063066;28;20032;-74
2022/02/19 02:54:28;;;;;;;0.45;0.45;;;;;;;0.58;95.52;96395.78;5062529;28;20021;-74
2022/02/19 02:56:54;;;;;;;0.40;0.40;;;;;;;0.49;95.43;96402.88;5061985;28;20108;-74
2022/02/19 02:59:19;;;;;;;0.40;0.40;;;;;;;0.43;95.27;96415.00;5062114;28;20028;-75
2022/02/19 03:01:45;;;;;;;0.50;0.50;;;;;;;0.27;95.18;96427.38;5062839;28;20205;-74
2022/02/19 03:04:13;;;;;;;0.50;0.50;;;;;;;0.19;95.49;96442.94;5062761;28;20017;-74
2022/02/19 03:06:38;;;;;;;0.50;0.50;;;;;;;0.13;95.43;96456.69;5062943;28;20025;-75
2022/02/19 03:09:04;;;;;;;0.47;0.47;;;;;;;0.06;95.69;96462.88;5065660;28;20025;-74
2022/02/19 03:11:29;;;;;;;0.40;0.40;;;;;;;0.08;95.69;96469.59;5066629;28;20509;-74
2022/02/19 03:13:54;;;;;;;0.50;0.50;;;;;;;0.03;95.51;96471.47;5066490;28;20025;-74
2022/02/19 03:16:20;;;;;;;0.40;0.40;;;;;;;-0.01;95.49;96491.09;5048577;28;20021;-75
2022/02/19 03:18:45;;;;;;;0.40;0.40;;;;;;;-0.06;95.71;96498.06;5066385;28;20026;-75
2022/02/19 03:21:11;;;;;;;0.40;0.40;;;;;;;-0.06;95.59;96494.66;5066227;28;20036;-72
2022/02/19 03:23:36;;;;;;;0.40;0.40;;;;;;;-0.11;95.77;96510.09;5066143;28;20112;-72
2022/02/19 03:26:07;;;;;;;0.50;0.50;;;;;;;-0.15;95.87;96496.63;5048017;28;20049;-74
2022/02/19 03:28:32;;;;;;;0.47;0.47;;;;;;;-0.16;95.91;96527.25;5065351;28;20074;-73
2022/02/19 03:30:57;;;;;;;0.50;0.50;;;;;;;-0.15;96.03;96539.97;5047080;28;20440;-73
2022/02/19 03:33:23;;;;;;;0.40;0.40;;;;;;;-0.11;96.07;96543.22;5048059;28;20488;-72
2022/02/19 03:35:48;;;;;;;0.43;0.43;;;;;;;-0.16;96.23;96548.47;5066380;28;20021;-74
2022/02/19 03:38:13;;;;;;;0.40;0.40;;;;;;;-0.14;96.21;96556.91;5048139;28;20025;-75
2022/02/19 03:40:39;;;;;;;0.40;0.40;;;;;;;-0.16;96.04;96547.66;5065915;28;20033;-73
2022/02/19 03:43:04;;;;;;;0.50;0.50;;;;;;;-0.15;96.33;96559.50;5065914;28;20049;-73
2022/02/19 03:45:30;;;;;;;0.45;0.45;;;;;;;-0.08;96.37;96604.34;5065954;28;20029;-73
2022/02/19 03:47:55;;;;;;;0.40;0.40;;;;;;;-0.11;96.25;96606.16;5065871;28;20017;-73
2022/02/19 03:50:20;;;;;;;0.40;0.40;;;;;;;-0.06;96.38;96624.69;5065797;28;20032;-72
2022/02/19 03:52:46;;;;;;;0.40;0.40;;;;;;;-0.02;96.22;96637.31;5047637;28;20048;-73
2022/02/19 03:55:12;;;;;;;0.50;0.50;;;;;;;-0.03;96.32;96642.47;5065546;28;20025;-74
2022/02/19 03:57:38;;;;;;;0.50;0.50;;;;;;;-0.01;96.45;96653.47;5065600;28;20398;-73
2022/02/19 04:00:11;;;;;;;0.50;0.50;;;;;;;-0.01;96.36;96654.31;5065889;28;20040;-74
2022/02/19 04:02:38;;;;;;;0.40;0.40;;;;;;;0.02;96.22;96665.31;5047696;28;20024;-73
2022/02/19 04:05:07;;;;;;;0.40;0.40;;;;;;;0.01;96.36;96672.13;5065717;28;20498;-73
2022/02/19 04:07:33;;;;;;;0.40;0.40;;;;;;;-0.01;96.73;96684.91;5065876;28;20052;-74
2022/02/19 04:09:58;;;;;;;0.40;0.40;;;;;;;0.05;96.62;96703.50;5065382;28;20075;-74
2022/02/19 04:12:25;;;;;;;0.50;0.50;;;;;;;-0.03;96.28;96699.41;5065336;28;20044;-75
2022/02/19 04:14:50;;;;;;;0.40;0.40;;;;;;;0.01;96.37;96724.84;5065408;28;20020;-73
2022/02/19 04:17:16;;;;;;;0.47;0.47;;;;;;;0.02;96.61;96736.75;5065457;28;20055;-73
2022/02/19 04:19:41;;;;;;;0.40;0.40;;;;;;;0.03;96.63;96738.41;5064054;28;20017;-74
2022/02/19 04:22:06;;;;;;;0.50;0.50;;;;;;;0.02;96.57;96745.19;5065202;28;20017;-71
2022/02/19 04:24:32;;;;;;;0.50;0.50;;;;;;;0.07;96.48;96762.94;5064788;28;20064;-75
2022/02/19 04:26:57;;;;;;;0.50;0.50;;;;;;;0.05;96.65;96775.72;5065271;28;20033;-72
2022/02/19 04:29:23;;;;;;;0.50;0.50;;;;;;;0.08;96.88;96779.94;5065193;28;20021;-72
2022/02/19 04:31:54;;;;;;;0.40;0.40;;;;;;;0.10;96.69;96773.06;5065396;28;20049;-73
2022/02/19 04:34:23;;;;;;;0.70;0.70;;;;;;;0.06;96.94;96808.03;5064837;28;20055;-73
2022/02/19 04:36:49;;;;;;;0.45;0.45;;;;;;;0.10;96.98;96811.31;5064905;28;20040;-73
2022/02/19 04:39:17;;;;;;;0.40;0.40;;;;;;;0.03;96.81;96805.56;5064900;28;20017;-73
2022/02/19 04:41:42;;;;;;;0.40;0.40;;;;;;;0.06;96.92;96843.75;5064968;28;20075;-73
2022/02/19 04:44:08;;;;;;;0.50;0.50;;;;;;;0.10;96.98;96859.78;5064706;28;20392;-72
2022/02/19 04:46:33;;;;;;;0.40;0.40;;;;;;;0.13;96.93;96879.31;5046736;28;20032;-73
2022/02/19 04:48:58;;;;;;;0.40;0.40;;;;;;;0.12;97.14;96875.91;5064861;28;20050;-72
2022/02/19 04:51:24;;;;;;;0.40;0.40;;;;;;;0.04;97.05;96896.50;5064614;28;20037;-73
2022/02/19 04:53:49;;;;;;;0.45;0.45;;;;;;;0.15;97.12;96924.31;5064211;28;20051;-74
2022/02/19 04:56:15;;;;;;;0.40;0.40;;;;;;;0.15;97.31;96929.41;5046404;28;20055;-73
2022/02/19 04:58:40;;;;;;;0.40;0.40;;;;;;;0.20;97.26;96955.66;5064486;28;20021;-72
2022/02/19 05:01:06;;;;;;;0.50;0.50;;;;;;;0.24;97.24;96959.81;5064359;28;20035;-74
2022/02/19 05:03:31;;;;;;;0.50;0.50;;;;;;;0.28;97.41;96972.50;5064293;28;20024;-73
2022/02/19 05:05:57;;;;;;;0.50;0.50;;;;;;;0.33;97.39;96983.44;5064561;28;20099;-72
2022/02/19 05:08:22;;;;;;;0.47;0.47;;;;;;;0.31;97.23;96991.13;5046381;28;20021;-72
2022/02/19 05:10:48;;;;;;;0.40;0.40;;;;;;;0.34;97.12;96997.88;5064043;28;20033;-71
2022/02/19 05:13:13;;;;;;;0.50;0.50;;;;;;;0.22;96.92;97007.47;5064114;28;20082;-73
2022/02/19 05:15:39;;;;;;;0.40;0.40;;;;;;;0.18;97.07;97012.66;5064137;28;20041;-72
2022/02/19 05:18:05;;;;;;;0.40;0.40;;;;;;;0.24;96.84;97027.84;5064129;28;20017;-72
2022/02/19 05:20:31;;;;;;;0.40;0.40;;;;;;;0.24;96.93;97044.00;5064052;28;20123;-73
2022/02/19 05:22:56;;;;;;;0.40;0.40;;;;;;;0.18;96.89;97046.69;5063935;28;20032;-73
2022/02/19 05:25:22;;;;;;;0.40;0.40;;;;;;;0.16;96.91;97063.72;5063930;28;20045;-73
2022/02/19 05:27:47;;;;;;;0.50;0.50;;;;;;;0.23;96.90;97085.72;5046079;28;20592;-72
2022/02/19 05:30:13;;;;;;;0.40;0.40;;;;;;;0.25;96.79;97108.66;5063781;28;20112;-72
2022/02/19 05:32:38;;;;;;;0.40;0.40;;;;;;;0.26;96.94;97119.69;5045698;28;20227;-72
2022/02/19 05:35:07;;;;;;;0.47;0.47;;;;;;;0.23;97.06;97128.25;5063947;28;20182;-72
2022/02/19 05:37:33;;;;;;;0.40;0.40;;;;;;;0.28;96.91;97133.25;5045981;28;20025;-73
2022/02/19 05:39:59;;;;;;;0.40;0.40;;;;;;;0.23;96.73;97153.75;5063544;28;20120;-72
2022/02/19 05:42:25;;;;;;;0.50;0.50;;;;;;;0.30;96.94;97164.69;5063738;28;20029;-73
2022/02/19 05:44:50;;;;;;;0.40;0.40;;;;;;;0.31;96.90;97184.22;5063532;28;20465;-71
2022/02/19 05:47:17;;;;;;;0.40;0.40;;;;;;;0.29;97.03;97201.28;5063841;28;20032;-72
2022/02/19 05:49:43;;;;;;;0.50;0.50;;;;;;;0.28;96.98;97215.75;5063428;28;20025;-72
2022/02/19 05:52:09;;;;;;;0.40;0.40;;;;;;;0.17;97.02;97210.84;5063752;28;20103;-71
2022/02/19 05:54:35;;;;;;;0.47;0.47;;;;;;;0.26;97.02;97225.13;5063080;28;20196;-71
2022/02/19 05:57:01;;;;;;;0.40;0.40;;;;;;;0.21;96.93;97225.22;5063718;28;20024;-70
2022/02/19 05:59:26;;;;;;;0.40;0.40;;;;;;;0.18;97.05;97235.47;5063463;28;20020;-73
2022/02/19 06:01:52;;;;;;;0.40;0.40;;;;;;;0.20;97.01;97258.41;5063476;28;20036;-72
2022/02/19 06:04:17;;;;;;;0.40;0.40;;;;;;;0.15;97.04;97261.06;5063252;28;20056;-72
2022/02/19 06:06:42;;;;;;;0.40;0.40;;;;;;;0.20;96.90;97266.06;5063416;28;20021;-71
2022/02/19 06:09:08;;;;;;;0.40;0.40;;;;;;;0.18;96.96;97283.09;5063236;28;20041;-71
2022/02/19 06:11:33;;;;;;;0.47;0.47;;;;;;;0.20;97.09;97302.66;5063346;28;20055;-71
2022/02/19 06:13:58;;;;;;;0.40;0.40;;;;;;;0.23;97.10;97310.25;5063054;28;20393;-71
2022/02/19 06:16:23;;;;;;;0.50;0.50;;;;;;;0.24;96.84;97326.38;5063144;28;20033;-70
2022/02/19 06:18:49;;;;;;;0.40;0.40;;;;;;;0.22;96.87;97336.59;5063205;28;20104;-70
2022/02/19 06:21:14;;;;;;;0.40;0.40;;;;;;;0.18;96.87;97335.00;5063010;28;20035;-70
2022/02/19 06:23:39;;;;;;;0.40;0.40;;;;;;;0.20;96.76;97346.03;5062999;28;20039;-71
2022/02/19 06:26:05;;;;;;;7.03;4.70;;;;;;;0.21;96.90;97369.81;5062789;28;20056;-70
2022/02/19 06:28:30;;;;;;;0.50;0.50;;;;;;;0.22;97.02;97377.44;5063239;28;20021;-71
2022/02/19 06:30:56;;;;;;;0.40;0.40;;;;;;;0.26;97.03;97392.72;5063158;28;20017;-71
2022/02/19 06:33:21;;;;;;;0.40;0.40;;;;;;;0.31;97.05;97407.09;5063184;28;20029;-71
2022/02/19 06:35:46;;;;;;;0.40;0.40;;;;;;;0.37;97.05;97424.00;5045309;28;20021;-70
2022/02/19 06:38:12;;;;;;;0.40;0.40;;;;;;;0.40;96.92;97429.06;5063124;28;20021;-71
2022/02/19 06:40:37;;;;;;;0.80;0.80;;;;;;;0.41;97.01;97452.88;5062025;28;20119;-71
2022/02/19 06:43:02;;;;;;;0.40;0.40;;;;;;;0.41;97.22;97455.44;5063185;28;20045;-71
2022/02/19 06:45:28;;;;;;;0.50;0.50;;;;;;;0.44;97.07;97460.50;5048451;28;20021;-71
2022/02/19 06:47:53;;;;;;;0.40;0.40;;;;;;;0.49;97.02;97487.66;5067065;28;20078;-71
2022/02/19 06:50:19;;;;;;;0.40;0.40;;;;;;;0.51;96.95;97494.44;5067160;28;20052;-70
2022/02/19 06:52:44;;;;;;;0.40;0.40;;;;;;;0.43;96.89;97495.38;5066617;28;20029;-70
2022/02/19 06:55:09;;;;;;;0.40;0.40;;;;;;;0.52;96.82;97525.06;5066715;28;20025;-70
2022/02/19 06:57:36;;;;;;;0.40;0.40;;;;;;;0.52;97.11;97532.72;5067031;28;20114;-72
2022/02/19 07:00:05;;;;;;;0.45;0.45;;;;;;;0.54;97.05;97543.75;5066693;28;20056;-70
2022/02/19 07:02:30;;;;;;;0.40;0.40;;;;;;;0.57;96.93;97553.06;5066842;28;20028;-70
2022/02/19 07:04:55;;;;;;;0.40;0.40;;;;;;;0.59;97.00;97566.66;5066917;28;20025;-71
2022/02/19 07:07:21;;;;;;;0.40;0.40;;;;;;;0.59;97.02;97572.59;5066855;28;20025;-70
2022/02/19 07:09:46;;;;;;;0.50;0.50;;;;;;;0.61;97.08;97587.91;5066573;28;20097;-70
2022/02/19 07:12:11;;;;;;;0.40;0.40;;;;;;;0.69;97.08;97608.22;5066864;28;20032;-70
2022/02/19 07:14:37;;;;;;;0.50;0.50;;;;;;;0.68;96.89;97616.75;5066345;28;20108;-70
2022/02/19 07:17:04;;;;;;;0.50;0.50;;;;;;;0.70;97.00;97626.06;5066499;28;20040;-70
2022/02/19 07:19:34;;;;;;;0.50;0.50;;;;;;;0.72;97.10;97642.22;5066540;28;20031;-70
2022/02/19 07:22:00;;;;;;;0.40;0.40;;;;;;;0.73;97.03;97648.19;5066526;28;20436;-70
2022/02/19 07:24:26;;;;;;;0.45;0.45;;;;;;;0.76;96.78;97666.03;5066020;28;20013;-68
2022/02/19 07:26:52;;;;;;;0.40;0.40;;;;;;;0.73;96.94;97676.28;5066468;28;20049;-69
2022/02/19 07:29:17;;;;;;;0.40;0.40;;;;;;;0.71;96.86;97678.00;5065536;28;20021;-69
2022/02/19 07:31:43;;;;;;;0.40;0.40;;;;;;;0.71;96.81;97689.06;5066065;28;20131;-69
2022/02/19 07:34:08;;;;;;;0.40;0.40;;;;;;;0.69;96.86;97706.09;5066221;28;20028;-70
2022/02/19 07:36:33;;;;;;;0.40;0.40;;;;;;;0.77;96.99;97723.06;5066142;28;20029;-69
2022/02/19 07:38:59;;;;;;;0.40;0.40;;;;;;;0.74;96.81;97736.69;5065983;28;20044;-70
2022/02/19 07:41:24;;;;;;;0.50;0.50;;;;;;;0.75;96.75;97748.63;5066035;28;20508;-70
2022/02/19 07:43:49;;;;;;;0.40;0.40;;;;;;;0.74;96.88;97755.44;5066246;28;20017;-70
2022/02/19 07:46:15;;;;;;;0.40;0.40;;;;;;;0.73;96.78;97758.00;5066023;28;20021;-70
2022/02/19 07:48:40;;;;;;;12.00;4.45;;;;;;;0.61;96.52;97762.38;5065765;28;20025;-70
2022/02/19 07:59:18;;;;;;;0.40;0.40;;;;;;;0.68;96.36;97819.34;5065807;28;20063;-70
2022/02/19 08:01:44;;;;;;;0.45;0.45;;;;;;;0.68;96.56;97818.50;5066028;28;20040;-70
2022/02/19 08:04:09;;;;;;;0.50;0.50;;;;;;;0.78;96.89;97801.38;5047713;28;20024;-70
2022/02/19 08:06:35;;;;;;;0.40;0.40;;;;;;;1.08;97.54;97814.66;5047988;28;20505;-70
2022/02/19 08:09:00;;;;;;;0.40;0.40;;;;;;;1.60;99.02;97832.75;5065788;28;20029;-70
2022/02/19 08:11:26;;;;;;;0.40;0.40;;;;;;;2.25;99.79;97840.34;5065925;28;20025;-71
2022/02/19 08:13:51;;;;;;;0.40;0.40;;;;;;;2.95;99.20;97855.38;5065273;28;20055;-70
2022/02/19 08:16:16;;;;;;;0.40;0.40;;;;;;;3.81;99.42;97856.22;5065441;28;20025;-71
2022/02/19 08:18:47;;;;;;;0.30;0.30;;;;;;;4.59;98.69;97849.25;5065272;28;20029;-71
2022/02/19 08:21:13;;;;;;;0.40;0.40;;;;;;;5.42;96.35;97877.94;5065632;28;20021;-71
2022/02/19 08:23:38;;;;;;;0.32;0.32;;;;;;;5.62;93.85;97878.25;5065237;28;20031;-71
2022/02/19 08:26:04;;;;;;;0.30;0.30;;;;;;;5.39;92.76;97903.75;5064732;28;20113;-70
2022/02/19 08:28:29;;;;;;;0.40;0.40;;;;;;;5.27;93.31;97925.50;5065283;28;20029;-70
2022/02/19 08:30:54;;;;;;;0.30;0.30;;;;;;;5.58;93.73;97931.53;5065262;28;20021;-74
2022/02/19 08:33:20;;;;;;;0.30;0.30;;;;;;;5.80;93.27;97943.78;5047207;28;20137;-70
2022/02/19 08:35:46;;;;;;;0.40;0.40;;;;;;;5.92;92.30;97943.47;5065213;28;20025;-74
2022/02/19 08:38:11;;;;;;;0.30;0.30;;;;;;;6.02;91.64;97954.31;5047282;28;20024;-78
2022/02/19 08:40:39;;;;;;;0.40;0.40;;;;;;;6.29;90.68;97958.75;5046625;28;20025;-69
2022/02/19 08:43:04;;;;;;;0.40;0.40;;;;;;;6.35;89.42;97975.72;5064724;28;20035;-67
2022/02/19 08:45:30;;;;;;;0.40;0.40;;;;;;;6.36;88.85;97982.59;5064942;28;20033;-68
2022/02/19 08:48:04;;;;;;;0.40;0.40;;;;;;;6.37;87.85;97992.84;5064705;28;20025;-68
2022/02/19 08:50:30;;;;;;;0.40;0.40;;;;;;;6.48;88.43;98001.97;5064837;28;20504;-68
2022/02/19 08:52:55;;;;;;;0.40;0.40;;;;;;;6.63;87.96;98016.16;5064368;28;20461;-69
2022/02/19 08:55:21;;;;;;;0.40;0.40;;;;;;;7.00;87.01;98019.28;5064482;28;20124;-70
2022/02/19 08:57:46;;;;;;;0.30;0.30;;;;;;;7.50;85.31;98017.66;5064712;28;20051;-69
2022/02/19 09:00:13;;;;;;;0.40;0.40;;;;;;;7.96;83.91;98037.56;5064350;28;20112;-72
2022/02/19 09:02:39;;;;;;;0.30;0.30;;;;;;;8.53;83.03;98029.47;5064553;28;20024;-70
2022/02/19 09:05:06;;;;;;;1.05;1.05;;;;;;;9.05;80.25;98034.38;5064111;28;20067;-70
2022/02/19 09:07:34;;;;;;;0.30;0.30;;;;;;;9.58;80.98;98054.69;5064278;28;20028;-71
2022/02/19 09:10:00;;;;;;;0.30;0.30;;;;;;;9.77;82.15;98057.31;5064076;28;20021;-70
2022/02/19 09:12:25;;;;;;;0.30;0.30;;;;;;;9.81;81.74;98064.97;5064182;28;20055;-72
2022/02/19 09:14:51;;;;;;;0.30;0.30;;;;;;;9.84;79.33;98073.44;5064162;28;20389;-72
2022/02/19 09:17:16;;;;;;;0.88;0.52;;;;;;;10.03;80.96;98075.25;5064201;28;20025;-70
2022/02/19 09:19:41;;;;;;;0.30;0.30;;;;;;;10.11;81.39;98086.09;5064081;28;20029;-71
2022/02/19 09:22:07;;;;;;;0.30;0.30;;;;;;;10.28;80.98;98084.50;5064334;28;20047;-75
2022/02/19 09:24:33;;;;;;;0.30;0.30;;;;;;;10.23;79.38;98099.44;5063925;28;20067;-77
2022/02/19 09:27:01;;;;;;;0.30;0.30;;;;;;;10.28;80.14;98110.44;5064116;28;20029;-77
2022/02/19 09:29:26;;;;;;;0.40;0.40;;;;;;;10.19;78.72;98113.44;5063823;28;20025;-79
2022/02/19 09:31:52;;;;;;;0.30;0.30;;;;;;;10.29;80.14;98117.31;5063653;28;20028;-77
2022/02/19 09:34:18;;;;;;;0.73;0.73;;;;;;;10.37;81.93;98129.94;5063240;28;20032;-78
2022/02/19 09:36:43;;;;;;;0.30;0.30;;;;;;;10.03;77.70;98120.13;5064035;28;20041;-76
2022/02/19 09:39:09;;;;;;;0.30;0.30;;;;;;;9.81;79.65;98129.75;5045831;28;20032;-78
2022/02/19 09:41:34;;;;;;;0.30;0.30;;;;;;;9.95;79.86;98129.16;5045906;28;20025;-75
2022/02/19 09:44:03;;;;;;;0.30;0.30;;;;;;;10.09;79.43;98137.19;5063884;28;20028;-76
2022/02/19 09:46:30;;;;;;;0.30;0.30;;;;;;;10.33;82.20;98151.75;5063920;28;20391;-76
2022/02/19 09:48:57;;;;;;;0.40;0.40;;;;;;;10.65;83.45;98160.69;5045961;28;20021;-74
2022/02/19 09:51:22;;;;;;;0.30;0.30;;;;;;;10.61;83.94;98161.75;5063966;28;20081;-74
2022/02/19 09:53:47;;;;;;;0.30;0.30;;;;;;;10.78;84.60;98173.16;5063628;28;20108;-75
2022/02/19 09:56:13;;;;;;;0.30;0.30;;;;;;;10.59;80.92;98160.97;5045457;28;20028;-76
2022/02/19 09:58:43;;;;;;;0.30;0.30;;;;;;;10.69;80.42;98174.41;5045868;28;20066;-75
2022/02/19 10:01:21;;;;;;;0.30;0.30;;;;;;;10.77;77.24;98205.19;5063880;28;20028;-74
2022/02/19 10:03:53;;;;;;;0.30;0.30;;;;;;;10.38;79.52;98210.28;5045418;28;20021;-75
2022/02/19 10:06:19;;;;;;;0.30;0.30;;;;;;;10.34;82.53;98211.31;5063545;28;20530;-76
2022/02/19 10:08:45;;;;;;;0.30;0.30;;;;;;;10.19;84.59;98211.97;5063611;28;20059;-74
2022/02/19 10:11:14;;;;;;;0.30;0.30;;;;;;;10.17;81.25;98232.78;5063148;28;20401;-75
2022/02/19 10:13:41;;;;;;;0.30;0.30;;;;;;;10.45;83.89;98238.56;5063218;28;20025;-74
2022/02/19 10:16:08;;;;;;;0.30;0.30;;;;;;;10.80;84.90;98246.56;5063390;28;20055;-74
2022/02/19 10:18:42;;;;;;;0.30;0.30;;;;;;;11.29;85.82;98247.88;5045359;28;20040;-74
2022/02/19 10:21:22;;;;;;;0.35;0.35;;;;;;;11.46;81.62;98259.22;5063424;28;20501;-74
2022/02/19 10:23:47;;;;;;;0.30;0.30;;;;;;;11.42;80.64;98265.50;5045483;28;20489;-75
2022/02/19 10:26:16;;;;;;;0.38;0.38;;;;;;;11.70;77.85;98266.78;5063021;28;20045;-75
2022/02/19 10:28:59;;;;;;;0.40;0.40;;;;;;;11.56;74.54;98272.63;5045540;28;20027;-74
2022/02/19 10:31:25;;;;;;;0.30;0.30;;;;;;;11.45;76.43;98273.16;5045353;28;20485;-73
2022/02/19 10:34:02;;;;;;;0.40;0.40;;;;;;;11.05;73.96;98281.00;5063299;28;20060;-72
2022/02/19 10:36:45;;;;;;;0.30;0.30;;;;;;;10.62;76.65;98289.75;5062480;28;20108;-73
2022/02/19 10:39:10;;;;;;;0.30;0.30;;;;;;;10.36;79.26;98300.28;5062509;28;20021;-72
2022/02/19 10:41:38;;;;;;;0.30;0.30;;;;;;;10.31;79.27;98298.78;5062511;28;20086;-72
2022/02/19 10:44:39;;;;;;;0.38;0.38;;;;;;;10.11;76.09;98306.47;5044569;28;20013;-74
2022/02/19 10:47:31;;;;;;;0.40;0.40;;;;;;;9.85;77.73;98310.97;5000504;28;20474;-73
2022/02/19 10:50:16;;;;;;;0.40;0.40;;;;;;;9.46;74.83;98314.16;4997538;28;20047;-72
2022/02/19 10:52:43;;;;;;;0.40;0.40;;;;;;;8.91;74.51;98303.22;5000213;28;20102;-72
2022/02/19 10:55:14;;;;;;;0.40;0.40;;;;;;;8.65;74.70;98336.84;4983415;28;20039;-73
2022/02/19 10:57:41;;;;;;;0.38;0.38;;;;;;;8.91;76.72;98342.03;5000261;28;20023;-72
2022/02/19 11:00:14;;;;;;;0.40;0.40;;;;;;;9.36;78.24;98345.59;4984142;28;20022;-72
2022/02/19 11:02:41;;;;;;;0.40;0.40;;;;;;;9.90;76.28;98360.03;5000458;28;20030;-72
2022/02/19 11:05:08;;;;;;;0.40;0.40;;;;;;;10.47;74.40;98356.09;5000214;28;20041;-73
2022/02/19 11:07:38;;;;;;;0.32;0.32;;;;;;;10.93;74.99;98349.91;5000151;28;20034;-71
2022/02/19 11:10:09;;;;;;;0.30;0.30;;;;;;;11.12;73.46;98360.31;4983767;28;20034;-71
2022/02/19 11:12:35;;;;;;;0.30;0.30;;;;;;;11.36;71.58;98360.97;4983711;28;20108;-72
2022/02/19 11:15:01;;;;;;;0.40;0.40;;;;;;;11.25;71.86;98369.25;4999789;28;20034;-72
2022/02/19 11:17:29;;;;;;;0.30;0.30;;;;;;;11.10;71.70;98369.94;5000153;28;20028;-71
2022/02/19 11:19:58;;;;;;;0.32;0.32;;;;;;;11.00;70.01;98364.28;5001639;28;20026;-72
2022/02/19 11:22:24;;;;;;;0.30;0.30;;;;;;;10.97;68.53;98367.03;5062054;28;20080;-71
2022/02/19 11:24:50;;;;;;;0.30;0.30;;;;;;;11.04;69.35;98384.00;5061946;28;20056;-72
2022/02/19 11:27:18;;;;;;;0.30;0.30;;;;;;;11.31;69.29;98381.13;5062177;28;20091;-72
2022/02/19 11:29:45;;;;;;;0.38;0.38;;;;;;;11.23;66.77;98383.22;5064328;28;20032;-73
2022/02/19 11:32:16;;;;;;;0.40;0.40;;;;;;;11.13;66.17;98394.00;5065775;28;20049;-72
2022/02/19 11:34:48;;;;;;;0.30;0.30;;;;;;;10.73;66.04;98390.50;5065527;28;20025;-72
2022/02/19 11:37:16;;;;;;;;;;;;;;;10.36;67.25;98398.88;5066401;28;20023;-72
2022/02/19 11:40:01;;;;;;;0.38;0.38;;;;;;;9.94;66.39;98408.25;5065197;28;20276;-73
2022/02/19 11:42:43;;;;;;;0.40;0.40;;;;;;;9.66;67.01;98415.31;5065545;28;20029;-72
2022/02/19 11:45:39;;;;;;;0.38;0.38;;;;;;;9.41;67.12;98411.03;5065760;28;20059;-72